Time;durP1;ratioP1;P1;durP2;ratioP2;P2;SDS_P1;SDS_P2;PMS_P1;PMS_P2;Temp;Humidity;BMP_temperature;BMP_pressure;BME280_temperature;BME280_humidity;BME280_pressure;Samples;Min_cycle;Max_cycle;Signal;HPM_P1;HPM_P2
2022/08/01 00:02:06;;;;;;;8.73;4.50;;;;;;;15.73;95.87;94122.36;1669706;85;21420;-58
2022/08/01 00:04:34;;;;;;;4.55;4.20;;;;;;;15.77;95.85;94125.66;1663467;84;21443;-58
2022/08/01 00:07:02;;;;;;;4.62;4.08;;;;;;;15.81;95.80;94130.37;1676719;85;21053;-58
2022/08/01 00:09:31;;;;;;;6.10;4.50;;;;;;;15.83;95.52;94125.08;1672821;85;21014;-58
2022/08/01 00:11:58;;;;;;;4.70;4.30;;;;;;;15.81;95.53;94122.66;1665889;85;21783;-58
2022/08/01 00:14:28;;;;;;;5.47;4.35;;;;;;;15.80;95.61;94118.37;1659482;85;21460;-57
2022/08/01 00:16:56;;;;;;;5.37;4.22;;;;;;;15.81;95.96;94115.11;1673126;85;20968;-57
2022/08/01 00:19:24;;;;;;;4.85;4.42;;;;;;;15.87;95.98;94109.59;1642736;86;21031;-58
2022/08/01 00:21:52;;;;;;;5.25;4.85;;;;;;;15.89;95.78;94110.60;1661290;85;21455;-58
2022/08/01 00:24:20;;;;;;;12.70;7.33;;;;;;;15.92;95.78;94114.41;1663339;85;21276;-57
2022/08/01 00:26:48;;;;;;;5.60;5.03;;;;;;;15.91;95.60;94121.96;1661263;85;21053;-58
2022/08/01 00:29:16;;;;;;;5.20;4.70;;;;;;;15.85;95.53;94120.41;1647627;85;21018;-58
2022/08/01 00:31:43;;;;;;;4.70;4.25;;;;;;;15.81;95.65;94122.66;1632943;86;20968;-58
2022/08/01 00:34:11;;;;;;;4.72;4.33;;;;;;;15.80;95.81;94128.08;1647112;85;21095;-58
2022/08/01 00:36:39;;;;;;;5.25;4.75;;;;;;;15.80;95.85;94123.30;1632938;87;21131;-58
2022/08/01 00:39:07;;;;;;;5.55;4.60;;;;;;;15.83;96.17;94130.63;1650262;86;21316;-58
2022/08/01 00:41:35;;;;;;;5.10;4.60;;;;;;;15.86;96.42;94117.76;1588623;86;21051;-57
2022/08/01 00:44:05;;;;;;;8.73;4.30;;;;;;;15.89;96.31;94124.47;1633611;87;21453;-58
2022/08/01 00:46:34;;;;;;;5.28;4.50;;;;;;;15.94;96.51;94122.99;1663212;85;21034;-57
2022/08/01 00:49:03;;;;;;;6.67;4.75;;;;;;;15.99;96.16;94121.64;1652270;85;21128;-58
2022/08/01 00:51:33;;;;;;;6.75;5.00;;;;;;;16.02;95.72;94116.48;1642108;86;21079;-58
2022/08/01 00:54:00;;;;;;;6.90;5.50;;;;;;;16.01;95.92;94117.73;1668535;85;21042;-58
2022/08/01 00:56:28;;;;;;;5.50;5.00;;;;;;;16.03;95.92;94111.67;1671017;85;21095;-58
2022/08/01 00:58:56;;;;;;;6.35;5.37;;;;;;;16.02;95.72;94119.87;1666630;85;21446;-58
2022/08/01 01:01:23;;;;;;;6.35;5.47;;;;;;;16.03;95.91;94110.29;1671638;84;21147;-57
2022/08/01 01:03:52;;;;;;;7.17;5.20;;;;;;;16.03;95.77;94113.84;1621624;85;21617;-57
2022/08/01 01:06:40;;;;;;;6.30;4.92;;;;;;;16.04;95.90;94112.58;1630388;86;21024;-58
2022/08/01 01:09:25;;;;;;;8.55;4.95;;;;;;;16.04;95.59;94108.41;1631868;86;21273;-59
2022/08/01 01:12:14;;;;;;;6.50;4.12;;;;;;;15.99;95.42;94103.61;1645695;86;21003;-58
2022/08/01 01:15:08;;;;;;;7.58;4.60;;;;;;;15.98;95.52;94102.09;1677572;85;21261;-58
2022/08/01 01:17:53;;;;;;;5.35;4.62;;;;;;;15.93;95.44;94108.34;1674592;84;21411;-58
2022/08/01 01:20:23;;;;;;;6.65;5.20;;;;;;;15.85;95.84;94103.77;1668264;85;21015;-58
2022/08/01 01:23:31;;;;;;;10.40;5.20;;;;;;;15.84;96.42;94103.02;1655655;85;20976;-57
2022/08/01 01:26:34;;;;;;;4.60;4.20;;;;;;;15.84;96.76;94103.02;1663964;85;21035;-57
2022/08/01 01:29:25;;;;;;;4.30;3.72;;;;;;;15.81;96.39;94110.17;1663479;84;21258;-58
2022/08/01 01:32:22;;;;;;;4.28;3.72;;;;;;;15.74;96.36;94110.01;1678009;84;20966;-57
2022/08/01 01:34:51;;;;;;;5.67;4.50;;;;;;;15.68;96.44;94113.38;1687924;84;21028;-57
2022/08/01 01:37:20;;;;;;;5.80;3.85;;;;;;;15.69;97.09;94112.77;1651040;85;20988;-57
2022/08/01 01:39:51;;;;;;;4.33;4.00;;;;;;;15.72;97.23;94112.52;1659536;86;21075;-57
2022/08/01 01:42:19;;;;;;;5.60;4.00;;;;;;;15.72;96.90;94106.97;1660660;85;21236;-57
2022/08/01 01:44:47;;;;;;;5.97;4.20;;;;;;;15.72;96.76;94108.36;1663004;84;20953;-57
2022/08/01 01:47:15;;;;;;;5.40;3.85;;;;;;;15.75;96.96;94097.66;1670360;85;20987;-57
2022/08/01 01:49:45;;;;;;;5.00;3.80;;;;;;;15.79;96.81;94100.20;1670221;84;21007;-57
2022/08/01 01:52:15;;;;;;;5.75;3.55;;;;;;;15.79;96.90;94105.14;1659790;85;21486;-57
2022/08/01 01:54:47;;;;;;;6.45;3.60;;;;;;;15.77;96.79;94103.47;1680760;85;21208;-57
2022/08/01 01:57:15;;;;;;;7.25;4.12;;;;;;;15.76;96.79;94108.88;1684285;84;20974;-57
2022/08/01 01:59:43;;;;;;;5.60;4.05;;;;;;;15.77;96.89;94100.69;1650722;84;21007;-57
2022/08/01 02:02:11;;;;;;;4.50;4.10;;;;;;;15.80;97.17;94096.17;1634794;85;21014;-58
2022/08/01 02:04:42;;;;;;;8.18;3.90;;;;;;;15.85;96.86;94094.83;1664042;85;21022;-58
2022/08/01 02:07:12;;;;;;;4.47;3.60;;;;;;;15.87;96.33;94104.80;1643494;85;21176;-57
2022/08/01 02:09:41;;;;;;;3.50;3.20;;;;;;;15.88;96.16;94102.80;1622486;86;21082;-58
2022/08/01 02:12:11;;;;;;;5.78;3.65;;;;;;;15.93;95.75;94097.89;1639962;86;21023;-57
2022/08/01 02:14:39;;;;;;;4.45;3.72;;;;;;;15.95;95.54;94102.31;1594233;88;21556;-58
2022/08/01 02:17:10;;;;;;;4.37;4.00;;;;;;;15.98;95.38;94107.64;1627987;87;21489;-57
2022/08/01 02:19:38;;;;;;;18.67;4.97;;;;;;;15.97;95.26;94100.57;1630813;86;21243;-58
2022/08/01 02:22:38;;;;;;;6.30;3.87;;;;;;;16.01;95.13;94105.87;1668478;84;20951;-58
2022/08/01 02:25:23;;;;;;;4.65;4.00;;;;;;;16.01;94.65;94106.64;1639576;85;21447;-58
2022/08/01 02:28:10;;;;;;;4.62;4.10;;;;;;;16.04;94.65;94107.03;1659590;85;21467;-58
2022/08/01 02:30:41;;;;;;;5.33;4.33;;;;;;;16.05;94.42;94103.00;1662526;85;21015;-57
2022/08/01 02:33:16;;;;;;;4.90;3.75;;;;;;;16.04;94.41;94108.41;1656388;85;21891;-57
2022/08/01 02:35:47;;;;;;;7.05;4.10;;;;;;;16.07;94.35;94114.35;1671357;84;21151;-57
2022/08/01 02:38:16;;;;;;;6.15;4.67;;;;;;;16.07;94.56;94109.45;1675725;84;20979;-57
2022/08/01 02:40:46;;;;;;;7.25;4.92;;;;;;;16.03;94.81;94113.84;1653456;84;21501;-57
2022/08/01 02:43:17;;;;;;;5.62;4.90;;;;;;;16.04;95.37;94111.80;1655951;85;21027;-60
2022/08/01 02:45:48;;;;;;;6.28;5.67;;;;;;;16.07;95.65;94110.19;1673998;85;21785;-58
2022/08/01 02:48:16;;;;;;;6.55;4.85;;;;;;;16.08;95.61;94116.52;1666089;85;21095;-57
2022/08/01 02:50:47;;;;;;;6.08;4.78;;;;;;;16.07;95.87;94117.13;1659852;85;20980;-57
2022/08/01 02:53:16;;;;;;;9.03;5.62;;;;;;;16.11;95.82;94111.35;1662463;85;21130;-57
2022/08/01 02:55:44;;;;;;;5.37;4.67;;;;;;;16.10;95.49;94115.38;1660516;85;21050;-58
2022/08/01 02:58:15;;;;;;;8.18;5.08;;;;;;;16.08;95.53;94122.81;1668350;85;21186;-58
2022/08/01 03:00:46;;;;;;;5.65;4.60;;;;;;;16.08;95.66;94119.29;1666669;85;20967;-57
2022/08/01 03:03:14;;;;;;;4.80;4.40;;;;;;;16.10;95.66;94116.13;1653717;85;20980;-58
2022/08/01 03:05:43;;;;;;;6.72;4.20;;;;;;;16.10;94.87;94113.35;1650449;85;21470;-57
2022/08/01 03:08:13;;;;;;;4.87;4.40;;;;;;;16.11;94.81;94121.06;1671921;85;21706;-57
2022/08/01 03:10:42;;;;;;;7.37;4.72;;;;;;;16.11;94.83;94123.84;1651423;84;21224;-57
2022/08/01 03:13:10;;;;;;;5.60;4.83;;;;;;;16.08;95.04;94120.03;1652156;85;21449;-58
2022/08/01 03:15:40;;;;;;;4.92;4.42;;;;;;;16.09;95.06;94123.58;1639921;85;21122;-57
2022/08/01 03:18:09;;;;;;;5.28;4.20;;;;;;;16.05;95.05;94123.03;1667435;85;21138;-57
2022/08/01 03:20:36;;;;;;;10.53;5.08;;;;;;;16.02;95.23;94126.19;1658759;85;21492;-56
2022/08/01 03:23:07;;;;;;;8.35;4.50;;;;;;;16.03;95.43;94124.16;1671828;85;21264;-57
2022/08/01 03:25:37;;;;;;;10.20;4.80;;;;;;;16.03;95.53;94136.03;1655564;85;21429;-57
2022/08/01 03:28:06;;;;;;;8.15;3.90;;;;;;;16.03;95.53;94128.32;1633002;85;21018;-57
2022/08/01 03:30:34;;;;;;;7.78;4.17;;;;;;;16.02;95.48;94122.03;1656033;86;21455;-57
2022/08/01 03:33:03;;;;;;;5.42;3.80;;;;;;;16.03;95.31;94134.64;1656725;85;21530;-58
2022/08/01 03:35:37;;;;;;;4.30;3.90;;;;;;;16.03;95.12;94130.48;1639184;85;21074;-57
2022/08/01 03:38:06;;;;;;;6.80;4.37;;;;;;;16.04;95.31;94134.00;1660691;85;20956;-57
2022/08/01 03:40:49;;;;;;;8.08;4.40;;;;;;;16.05;95.27;94128.58;1654143;84;21171;-57
2022/08/01 03:43:20;;;;;;;7.55;4.55;;;;;;;16.06;95.23;94132.27;1681162;84;21067;-60
2022/08/01 03:45:51;;;;;;;6.75;4.87;;;;;;;16.11;95.43;94130.78;1680801;84;21042;-58
2022/08/01 03:48:19;;;;;;;8.03;4.55;;;;;;;16.19;95.23;94133.20;1669003;84;21086;-58
2022/08/01 03:50:49;;;;;;;9.80;4.50;;;;;;;16.22;94.96;94140.53;1673337;84;21003;-58
2022/08/01 03:53:18;;;;;;;8.00;4.25;;;;;;;16.21;94.95;94134.23;1669550;85;21011;-58
2022/08/01 03:55:46;;;;;;;6.10;4.28;;;;;;;16.23;95.09;94137.27;1648659;85;21011;-58
2022/08/01 03:58:15;;;;;;;4.53;4.03;;;;;;;16.26;94.83;94138.30;1652946;85;21117;-58
2022/08/01 04:00:43;;;;;;;5.62;4.20;;;;;;;16.27;94.58;94141.20;1634501;87;21227;-58
2022/08/01 04:03:11;;;;;;;4.80;4.33;;;;;;;16.30;94.51;94138.17;1649089;86;21491;-57
2022/08/01 04:05:43;;;;;;;5.67;4.40;;;;;;;16.32;94.84;94148.14;1643568;85;21058;-57
2022/08/01 04:08:11;;;;;;;13.43;6.10;;;;;;;16.37;94.59;94146.07;1662979;85;21039;-57
2022/08/01 04:10:39;;;;;;;6.70;3.75;;;;;;;16.39;94.30;94149.11;1644423;85;21059;-58
2022/08/01 04:13:07;;;;;;;5.83;4.35;;;;;;;16.40;94.10;94154.78;1669573;84;21150;-58
2022/08/01 04:15:36;;;;;;;4.65;4.25;;;;;;;16.40;93.96;94157.56;1651839;84;20976;-57
2022/08/01 04:18:06;;;;;;;5.12;4.20;;;;;;;16.44;93.96;94158.08;1642873;87;20984;-58
2022/08/01 04:20:34;;;;;;;4.55;4.15;;;;;;;16.48;93.69;94155.81;1668219;84;21023;-57
2022/08/01 04:23:04;;;;;;;3.80;3.50;;;;;;;16.46;93.28;94157.72;1679061;85;21070;-58
2022/08/01 04:25:34;;;;;;;6.47;4.10;;;;;;;16.42;93.30;94157.81;1664368;84;21888;-57
2022/08/01 04:28:07;;;;;;;5.95;4.15;;;;;;;16.41;93.47;94160.47;1659563;85;21070;-57
2022/08/01 04:30:36;;;;;;;7.40;4.78;;;;;;;16.43;93.42;94160.73;1662825;85;21023;-57
2022/08/01 04:33:06;;;;;;;9.00;4.72;;;;;;;16.43;92.95;94153.78;1671730;84;21445;-58
2022/08/01 04:35:33;;;;;;;6.70;3.70;;;;;;;16.46;92.62;94161.89;1658282;84;21475;-58
2022/08/01 04:38:03;;;;;;;5.70;4.12;;;;;;;16.47;92.52;94163.41;1679256;85;21730;-58
2022/08/01 04:40:31;;;;;;;4.62;3.80;;;;;;;16.47;92.24;94165.41;1668355;85;21086;-59
2022/08/01 04:42:59;;;;;;;5.55;4.62;;;;;;;16.43;92.31;94163.50;1665983;84;21070;-59
2022/08/01 04:45:27;;;;;;;5.75;4.62;;;;;;;16.39;92.40;94158.82;1662960;85;21237;-58
2022/08/01 04:47:55;;;;;;;5.42;3.98;;;;;;;16.38;92.77;94161.47;1667241;85;20970;-57
2022/08/01 04:50:23;;;;;;;7.50;5.10;;;;;;;16.39;92.72;94160.95;1660202;85;21865;-57
2022/08/01 04:52:51;;;;;;;9.03;4.67;;;;;;;16.39;92.44;94158.82;1672902;85;21108;-56
2022/08/01 04:55:20;;;;;;;6.35;4.35;;;;;;;16.39;92.41;94154.02;1677321;84;21035;-60
2022/08/01 04:57:47;;;;;;;5.70;4.72;;;;;;;16.40;92.40;94153.40;1664728;84;21444;-58
2022/08/01 05:00:16;;;;;;;9.25;5.42;;;;;;;16.41;92.31;94156.30;1661909;84;21016;-56
2022/08/01 05:02:44;;;;;;;7.62;5.37;;;;;;;16.43;92.58;94155.17;1664450;85;21853;-53
2022/08/01 05:05:12;;;;;;;9.98;8.83;;;;;;;16.46;92.68;94150.78;1659845;85;20959;-54
2022/08/01 05:07:41;;;;;;;7.10;6.50;;;;;;;16.45;93.01;94153.42;1658351;85;21098;-54
2022/08/01 05:10:10;;;;;;;13.62;6.03;;;;;;;16.47;92.95;94148.74;1663957;85;21074;-54
2022/08/01 05:12:39;;;;;;;12.15;7.03;;;;;;;16.47;93.01;94150.91;1667275;84;21225;-53
2022/08/01 05:15:08;;;;;;;9.53;6.00;;;;;;;16.42;92.80;94152.27;1660728;85;21174;-54
2022/08/01 05:17:38;;;;;;;7.15;5.53;;;;;;;16.39;92.96;94147.72;1665757;84;20959;-54
2022/08/01 05:20:07;;;;;;;9.40;6.78;;;;;;;16.39;93.08;94149.11;1678741;85;21114;-53
2022/08/01 05:22:35;;;;;;;7.97;6.30;;;;;;;16.41;93.41;94143.81;1677643;84;21566;-55
2022/08/01 05:25:04;;;;;;;5.58;5.05;;;;;;;16.43;93.60;94149.62;1644376;86;20967;-55
2022/08/01 05:27:38;;;;;;;14.85;6.10;;;;;;;16.48;93.55;94147.48;1652527;86;21315;-54
2022/08/01 05:30:02;;;;;;;18.50;8.30;;;;;;;16.50;93.25;94154.07;1632543;87;21074;-55
2022/08/01 05:32:31;;;;;;;6.03;5.17;;;;;;;16.53;93.15;94150.28;1635553;85;21019;-55
2022/08/01 05:34:59;;;;;;;5.65;5.15;;;;;;;16.58;92.98;94150.19;1650581;85;21597;-54
2022/08/01 05:37:27;;;;;;;8.33;5.33;;;;;;;16.60;92.83;94152.61;1648983;85;21066;-53
2022/08/01 05:39:56;;;;;;;6.90;6.20;;;;;;;16.67;92.92;94150.72;1647789;85;21267;-53
2022/08/01 05:42:24;;;;;;;7.10;5.15;;;;;;;16.77;92.63;94157.55;1658869;85;21081;-55
2022/08/01 05:44:52;;;;;;;6.97;5.45;;;;;;;16.87;92.34;94165.06;1667436;85;21179;-60
2022/08/01 05:47:19;;;;;;;7.72;5.55;;;;;;;16.95;92.01;94157.74;1640749;84;21086;-55
2022/08/01 05:49:47;;;;;;;15.15;6.65;;;;;;;17.03;91.58;94158.75;1627572;86;21050;-55
2022/08/01 05:52:16;;;;;;;9.68;6.58;;;;;;;17.12;91.52;94164.84;1632967;86;21233;-55
2022/08/01 05:54:44;;;;;;;9.18;6.35;;;;;;;17.22;91.36;94159.80;1645220;85;21060;-55
2022/08/01 05:57:11;;;;;;;10.95;6.20;;;;;;;17.27;90.81;94161.20;1661926;85;21096;-55
2022/08/01 05:59:42;;;;;;;13.53;6.20;;;;;;;17.32;90.65;94166.64;1588089;88;21084;-57
2022/08/01 06:02:12;;;;;;;9.00;6.28;;;;;;;17.34;90.31;94167.70;1634319;86;20996;-56
2022/08/01 06:04:39;;;;;;;7.95;5.75;;;;;;;17.34;90.11;94162.75;1665079;84;21361;-56
2022/08/01 06:07:07;;;;;;;10.53;5.92;;;;;;;17.33;90.26;94168.16;1623377;85;21086;-57
2022/08/01 06:09:34;;;;;;;7.87;5.60;;;;;;;17.34;90.23;94164.14;1650839;85;21814;-56
2022/08/01 06:12:01;;;;;;;12.10;8.68;;;;;;;17.35;89.92;94165.66;1632093;85;21550;-55
2022/08/01 06:14:30;;;;;;;9.03;5.30;;;;;;;17.42;89.80;94169.34;1623090;85;21661;-55
2022/08/01 06:16:58;;;;;;;8.75;5.78;;;;;;;17.46;89.67;94171.23;1632999;85;21307;-56
2022/08/01 06:19:26;;;;;;;6.42;4.87;;;;;;;17.49;89.75;94170.22;1639013;85;21592;-58
2022/08/01 06:21:53;;;;;;;11.33;5.10;;;;;;;17.52;89.92;94167.20;1642756;85;21021;-58
2022/08/01 06:24:22;;;;;;;7.33;5.00;;;;;;;17.58;89.67;94168.56;1658325;84;20986;-57
2022/08/01 06:26:50;;;;;;;4.70;4.20;;;;;;;17.66;89.22;94170.98;1660194;84;21549;-61
2022/08/01 06:29:17;;;;;;;5.80;4.85;;;;;;;17.72;88.85;94168.95;1664881;84;21055;-58
2022/08/01 06:31:44;;;;;;;6.20;5.10;;;;;;;17.79;88.61;94173.38;1651707;84;21156;-58
2022/08/01 06:34:12;;;;;;;8.30;5.22;;;;;;;17.84;88.52;94165.65;1640108;85;21049;-57
2022/08/01 06:36:40;;;;;;;6.53;5.80;;;;;;;17.96;88.01;94169.17;1651241;84;22288;-66
2022/08/01 06:39:08;;;;;;;7.15;5.33;;;;;;;18.10;87.69;94166.75;1639987;84;21013;-56
2022/08/01 06:41:37;;;;;;;6.35;4.62;;;;;;;18.21;87.10;94162.68;1669234;84;21207;-56
2022/08/01 06:44:05;;;;;;;7.33;5.22;;;;;;;18.35;86.53;94156.72;1657206;83;21050;-56
2022/08/01 06:46:33;;;;;;;7.42;4.60;;;;;;;18.49;86.07;94169.59;1648926;84;21058;-56
2022/08/01 06:49:00;;;;;;;4.67;3.85;;;;;;;18.62;84.88;94163.58;1657803;84;21211;-59
2022/08/01 06:51:29;;;;;;;4.80;4.35;;;;;;;18.73;84.22;94163.55;1641446;85;21074;-58
2022/08/01 06:53:57;;;;;;;4.62;4.17;;;;;;;18.88;83.09;94162.59;1640762;84;21132;-63
2022/08/01 06:56:25;;;;;;;5.78;5.17;;;;;;;19.01;81.96;94157.83;1653922;85;21177;-59
2022/08/01 06:58:56;;;;;;;5.80;5.20;;;;;;;19.11;80.99;94158.41;1640117;85;21591;-59
2022/08/01 07:01:23;;;;;;;8.28;4.67;;;;;;;19.19;80.12;94159.38;1630374;85;21584;-56
2022/08/01 07:03:51;;;;;;;8.68;5.40;;;;;;;19.28;79.68;94154.91;1647967;85;21069;-60
2022/08/01 07:06:19;;;;;;;4.72;4.33;;;;;;;19.43;79.42;94156.70;1664643;83;21141;-56
2022/08/01 07:08:48;;;;;;;7.17;4.50;;;;;;;19.62;79.04;94155.41;1653369;84;21089;-59
2022/08/01 07:11:15;;;;;;;4.50;3.85;;;;;;;19.82;78.14;94154.36;1634106;85;21067;-58
2022/08/01 07:13:45;;;;;;;8.25;4.25;;;;;;;20.04;77.05;94148.59;1613951;87;21127;-64
2022/08/01 07:16:13;;;;;;;4.10;3.70;;;;;;;20.16;75.98;94145.16;1645927;85;21675;-63
2022/08/01 07:18:42;;;;;;;4.42;3.55;;;;;;;20.27;75.77;94149.88;1638686;85;21261;-67
2022/08/01 07:21:10;;;;;;;5.55;4.03;;;;;;;20.41;74.38;94144.52;1638898;84;21034;-67
2022/08/01 07:23:37;;;;;;;10.53;3.72;;;;;;;20.47;73.71;94149.39;1623324;86;21061;-62
2022/08/01 07:26:06;;;;;;;4.55;3.70;;;;;;;20.52;73.13;94147.94;1639453;85;21619;-72
2022/08/01 07:28:33;;;;;;;6.40;4.83;;;;;;;20.62;73.05;94151.13;1640839;84;21131;-62
2022/08/01 07:31:01;;;;;;;7.50;4.40;;;;;;;20.73;72.98;94152.41;1627036;86;21121;-58
2022/08/01 07:33:31;;;;;;;5.15;4.58;;;;;;;20.85;72.07;94152.39;1616962;85;21110;-65
2022/08/01 07:35:58;;;;;;;6.40;3.95;;;;;;;20.95;70.62;94153.55;1638292;84;21094;-64
2022/08/01 07:38:27;;;;;;;8.25;4.45;;;;;;;20.97;69.35;94151.75;1642474;85;21518;-65
2022/08/01 07:40:55;;;;;;;6.92;3.92;;;;;;;20.97;69.22;94143.98;1635370;86;21154;-64
2022/08/01 07:43:24;;;;;;;5.58;3.75;;;;;;;21.05;69.52;94149.84;1645988;85;21264;-59
2022/08/01 07:45:51;;;;;;;7.33;5.90;;;;;;;21.12;68.42;94142.89;1655946;84;21033;-63
2022/08/01 07:48:23;;;;;;;5.20;4.65;;;;;;;21.12;68.34;94146.44;1642709;85;21277;-64
2022/08/01 07:50:51;;;;;;;4.37;3.80;;;;;;;21.16;69.28;94144.73;1628098;86;21046;-62
2022/08/01 07:53:19;;;;;;;4.33;3.83;;;;;;;21.27;68.80;94150.19;1627070;85;21133;-67
2022/08/01 07:55:46;;;;;;;6.60;3.72;;;;;;;21.41;68.51;94146.14;1633863;84;21157;-60
2022/08/01 07:58:14;;;;;;;4.20;3.83;;;;;;;21.64;68.27;94147.37;1653003;85;21181;-64
2022/08/01 08:00:42;;;;;;;4.80;4.30;;;;;;;21.85;68.39;94150.44;1659048;84;21632;-61
2022/08/01 08:03:10;;;;;;;4.25;3.75;;;;;;;21.98;67.10;94148.34;1640060;85;21125;-62
2022/08/01 08:05:39;;;;;;;4.58;4.17;;;;;;;22.04;66.89;94147.70;1640656;84;21025;-63
2022/08/01 08:08:08;;;;;;;6.90;4.12;;;;;;;22.14;66.00;94148.03;1635914;86;21610;-60
2022/08/01 08:10:38;;;;;;;4.45;3.83;;;;;;;22.27;66.17;94154.41;1650570;85;21118;-63
2022/08/01 08:13:05;;;;;;;5.87;4.50;;;;;;;22.42;64.87;94156.08;1663154;84;21382;-60
2022/08/01 08:15:34;;;;;;;6.62;5.33;;;;;;;22.53;64.76;94160.72;1647903;84;21332;-60
2022/08/01 08:18:03;;;;;;;4.95;4.30;;;;;;;22.59;64.72;94159.95;1652316;84;21005;-58
2022/08/01 08:20:31;;;;;;;8.98;5.78;;;;;;;22.65;64.73;94162.77;1656631;85;21128;-59
2022/08/01 08:22:58;;;;;;;7.97;5.75;;;;;;;22.68;64.63;94161.68;1652330;85;21072;-59
2022/08/01 08:25:28;;;;;;;5.20;4.70;;;;;;;22.66;64.54;94160.06;1658930;85;21475;-58
2022/08/01 08:27:56;;;;;;;7.75;5.25;;;;;;;22.59;64.32;94155.12;1647514;84;21088;-61
2022/08/01 08:30:23;;;;;;;5.22;4.62;;;;;;;22.53;63.45;94153.70;1658943;84;21121;-61
2022/08/01 08:32:51;;;;;;;6.35;4.85;;;;;;;22.55;63.23;94154.69;1661534;84;21150;-59
2022/08/01 08:35:18;;;;;;;10.15;5.97;;;;;;;22.61;63.36;94152.52;1635302;85;21148;-62
2022/08/01 08:37:45;;;;;;;5.60;4.92;;;;;;;22.70;62.43;94154.87;1659751;84;21014;-59
2022/08/01 08:40:12;;;;;;;4.62;4.10;;;;;;;22.70;60.90;94153.48;1654856;84;21065;-58
2022/08/01 08:42:40;;;;;;;4.80;4.17;;;;;;;22.70;61.11;94152.08;1667294;84;21082;-60
2022/08/01 08:45:09;;;;;;;4.10;3.70;;;;;;;22.76;61.72;94155.55;1656970;84;21984;-58
2022/08/01 08:47:37;;;;;;;11.22;5.20;;;;;;;22.86;60.28;94156.60;1649876;84;21100;-60
2022/08/01 08:50:05;;;;;;;5.17;3.72;;;;;;;22.91;60.90;94162.77;1647373;85;21059;-60
2022/08/01 08:52:35;;;;;;;5.00;3.65;;;;;;;22.98;60.68;94163.50;1635630;86;21573;-57
2022/08/01 08:55:04;;;;;;;6.83;5.45;;;;;;;23.06;60.32;94160.80;1628712;85;21093;-66
2022/08/01 08:57:32;;;;;;;5.87;3.92;;;;;;;23.06;59.76;94154.52;1679823;85;21105;-61
2022/08/01 09:00:00;;;;;;;4.62;3.50;;;;;;;23.06;60.96;94148.17;1678784;85;20910;-63
2022/08/01 09:02:27;;;;;;;3.22;2.90;;;;;;;23.17;60.63;94151.52;1655546;84;21502;-61
2022/08/01 09:04:57;;;;;;;7.97;5.65;;;;;;;23.30;61.07;94155.71;1664494;83;21065;-58
2022/08/01 09:07:26;;;;;;;3.58;3.27;;;;;;;23.41;61.27;94151.23;1658615;84;21190;-64
2022/08/01 09:09:53;;;;;;;4.00;3.50;;;;;;;23.51;61.16;94150.13;1641334;85;21225;-64
2022/08/01 09:12:21;;;;;;;4.67;3.30;;;;;;;23.59;59.93;94148.90;1636751;85;21188;-65
2022/08/01 09:14:53;;;;;;;3.60;3.30;;;;;;;23.68;59.18;94147.68;1631798;85;21062;-63
2022/08/01 09:17:19;;;;;;;4.08;3.37;;;;;;;23.77;59.32;94149.37;1654229;84;21161;-59
2022/08/01 09:19:55;;;;;;;7.03;3.95;;;;;;;23.88;57.30;94142.11;1660206;84;21160;-61
2022/08/01 09:22:22;;;;;;;5.15;2.77;;;;;;;23.95;57.22;94142.09;1647854;84;21262;-60
2022/08/01 09:25:04;;;;;;;3.30;3.00;;;;;;;24.11;57.50;94138.20;1644542;86;21101;-61
2022/08/01 09:27:33;;;;;;;5.00;3.20;;;;;;;24.25;57.80;94139.64;1644261;85;21427;-60
2022/08/01 09:30:12;;;;;;;3.27;2.90;;;;;;;24.39;57.43;94140.30;1644785;84;21074;-63
2022/08/01 09:33:00;;;;;;;4.62;3.50;;;;;;;24.52;56.52;94136.77;1646399;85;21097;-60
2022/08/01 09:35:37;;;;;;;3.72;3.35;;;;;;;24.59;56.21;94136.72;1647658;84;21235;-69
2022/08/01 09:38:22;;;;;;;3.90;3.27;;;;;;;24.58;55.81;94142.24;1620860;85;21896;-66
2022/08/01 09:40:58;;;;;;;5.28;3.30;;;;;;;24.47;55.12;94143.27;1645632;85;21136;-61
2022/08/01 09:43:28;;;;;;;3.83;3.50;;;;;;;24.38;55.60;94133.17;1653368;85;21000;-62
2022/08/01 09:45:58;;;;;;;10.00;3.77;;;;;;;24.33;55.65;94137.63;1647542;84;21057;-69
2022/08/01 09:48:29;;;;;;;3.72;3.40;;;;;;;24.25;55.77;94133.25;1638648;84;21319;-63
2022/08/01 09:50:58;;;;;;;3.80;3.50;;;;;;;24.22;56.24;94137.17;1641054;84;21013;-62
2022/08/01 09:53:26;;;;;;;4.03;3.62;;;;;;;24.25;56.60;94134.02;1655150;84;21046;-61
2022/08/01 09:55:55;;;;;;;3.40;3.10;;;;;;;24.34;55.94;94128.52;1651544;85;21151;-63
2022/08/01 09:58:22;;;;;;;3.90;3.50;;;;;;;24.39;55.04;94129.05;1650908;85;21677;-63
2022/08/01 10:01:03;;;;;;;3.83;3.45;;;;;;;24.43;55.45;94137.22;1650047;84;21040;-63
2022/08/01 10:03:32;;;;;;;2.90;2.65;;;;;;;24.54;55.54;94137.63;1652181;84;22369;-59
2022/08/01 10:05:59;;;;;;;3.90;3.02;;;;;;;24.66;55.63;94133.19;1610431;84;21070;-64
2022/08/01 10:08:27;;;;;;;5.37;3.30;;;;;;;24.75;55.06;94129.88;1632191;85;21958;-61
2022/08/01 10:11:13;;;;;;;7.53;3.27;;;;;;;24.86;55.27;94119.06;1647372;84;21139;-62
2022/08/01 10:13:41;;;;;;;4.55;3.60;;;;;;;24.92;55.50;94128.75;1671662;85;21802;-62
2022/08/01 10:16:08;;;;;;;3.95;2.95;;;;;;;24.92;55.94;94127.34;1662418;83;21111;-58
2022/08/01 10:18:36;;;;;;;5.50;2.83;;;;;;;24.93;56.22;94137.30;1639498;85;21595;-60
2022/08/01 10:21:04;;;;;;;3.72;3.20;;;;;;;24.98;55.85;94126.52;1670039;84;21125;-57
2022/08/01 10:23:34;;;;;;;4.17;2.92;;;;;;;24.96;54.88;94125.66;1675412;84;21010;-59
2022/08/01 10:26:02;;;;;;;2.60;2.40;;;;;;;24.91;54.54;94128.66;1660049;84;21407;-59
2022/08/01 10:28:31;;;;;;;6.08;3.02;;;;;;;24.86;55.65;94125.33;1662638;83;22172;-58
2022/08/01 10:30:59;;;;;;;4.72;3.33;;;;;;;24.88;55.61;94124.11;1656786;84;21103;-61
2022/08/01 10:33:26;;;;;;;4.20;3.27;;;;;;;24.89;55.17;94121.39;1644797;85;21146;-58
2022/08/01 10:35:54;;;;;;;6.15;3.02;;;;;;;24.87;54.77;94121.20;1664341;84;21024;-62
2022/08/01 10:38:24;;;;;;;5.12;3.00;;;;;;;24.81;55.32;94129.06;1639660;85;21113;-62
2022/08/01 10:40:54;;;;;;;4.97;2.60;;;;;;;24.80;55.53;94128.97;1666053;83;21042;-56
2022/08/01 10:43:22;;;;;;;4.15;3.30;;;;;;;24.83;56.73;94134.25;1676907;84;21085;-58
2022/08/01 10:45:50;;;;;;;5.78;2.95;;;;;;;24.91;55.50;94134.29;1640500;84;21571;-58
2022/08/01 10:48:29;;;;;;;3.20;2.72;;;;;;;25.07;55.93;94130.98;1641638;84;21042;-68
2022/08/01 10:50:59;;;;;;;5.00;3.50;;;;;;;25.16;55.87;94136.75;1684522;84;21321;-60
2022/08/01 10:53:28;;;;;;;3.92;3.33;;;;;;;25.15;55.42;94131.02;1669754;84;21435;-59
2022/08/01 10:56:01;;;;;;;3.25;2.62;;;;;;;24.96;56.15;94144.62;1661563;84;21082;-56
2022/08/01 10:58:38;;;;;;;5.00;3.00;;;;;;;24.70;57.21;94143.43;1664031;83;20998;-59
2022/08/01 11:01:26;;;;;;;3.87;3.40;;;;;;;24.40;57.16;94154.46;1675085;84;21026;-59
2022/08/01 11:04:08;;;;;;;7.55;3.47;;;;;;;24.08;57.59;94147.75;1652691;85;21237;-60
2022/08/01 11:06:53;;;;;;;5.28;3.33;;;;;;;23.78;58.57;94156.49;1645546;85;21188;-64
2022/08/01 11:09:27;;;;;;;7.40;4.30;;;;;;;23.52;59.30;94160.05;1626712;85;21207;-61
2022/08/01 11:12:08;;;;;;;3.22;2.98;;;;;;;23.20;60.08;94159.52;1643684;85;21030;-61
2022/08/01 11:15:02;;;;;;;4.42;3.55;;;;;;;22.97;61.07;94159.19;1610517;85;21102;-59
2022/08/01 11:17:38;;;;;;;3.60;3.12;;;;;;;22.76;61.52;94163.96;1593254;88;21211;-64
2022/08/01 11:20:12;;;;;;;8.45;4.62;;;;;;;22.59;62.38;94170.54;1587269;87;21060;-56
2022/08/01 11:23:04;;;;;;;5.00;4.25;;;;;;;22.52;62.64;94167.62;1620093;85;21113;-58
2022/08/01 11:25:45;;;;;;;;;;;;;;;22.44;62.97;94170.31;1647224;85;21097;-60
2022/08/01 11:28:25;;;;;;;5.67;3.95;;;;;;;22.36;63.28;94171.45;1626997;85;20338;-58
2022/08/01 11:31:12;;;;;;;4.22;3.20;;;;;;;22.31;62.84;94171.66;1645627;84;21079;-61
2022/08/01 11:33:45;;;;;;;5.42;4.00;;;;;;;22.31;63.22;94169.52;1655745;83;21029;-62
2022/08/01 11:36:17;;;;;;;4.30;3.50;;;;;;;22.33;63.53;94160.66;1668977;83;21006;-64
2022/08/01 11:39:12;;;;;;;4.93;4.20;;;;;;;22.37;63.24;94168.76;1650089;85;21058;-60
2022/08/01 11:41:41;;;;;;;4.37;3.80;;;;;;;22.47;63.38;94169.89;1617889;86;21130;-61
2022/08/01 11:44:22;;;;;;;6.67;3.90;;;;;;;22.61;63.13;94165.14;1671194;84;21756;-61
2022/08/01 11:47:04;;;;;;;4.58;3.98;;;;;;;22.75;62.26;94168.06;1653474;84;21061;-58
2022/08/01 11:49:45;;;;;;;5.30;4.45;;;;;;;22.86;61.66;94164.28;1666091;84;21124;-61
2022/08/01 11:52:31;;;;;;;4.45;4.05;;;;;;;22.96;61.61;94170.95;1646886;84;20981;-62